createdAt,value
2022-08-18T00:01:16.484Z,31.60
2022-08-18T00:03:55.640Z,32.27
2022-08-18T00:06:24.215Z,30.63
2022-08-18T00:08:55.258Z,31.07
2022-08-18T00:11:23.409Z,30.67
2022-08-18T00:13:50.039Z,31.47
2022-08-18T00:16:16.634Z,26.93
2022-08-18T00:18:43.261Z,32.47
2022-08-18T00:21:09.968Z,28.37
2022-08-18T00:23:38.515Z,29.30
2022-08-18T00:26:05.426Z,27.83
2022-08-18T00:28:32.070Z,30.37
2022-08-18T00:30:59.105Z,28.57
2022-08-18T00:33:25.764Z,28.50
2022-08-18T00:35:52.501Z,28.27
2022-08-18T00:38:24.786Z,29.27
2022-08-18T00:40:54.355Z,28.40
2022-08-18T00:43:35.036Z,30.13
2022-08-18T00:46:02.358Z,29.70
2022-08-18T00:48:29.165Z,30.10
2022-08-18T00:50:58.912Z,31.10
2022-08-18T00:53:34.742Z,30.07
2022-08-18T00:56:09.314Z,31.20
2022-08-18T00:58:44.362Z,31.40
2022-08-18T01:01:13.900Z,32.13
2022-08-18T01:03:43.743Z,28.63
2022-08-18T01:06:17.375Z,30.77
2022-08-18T01:08:44.272Z,31.80
2022-08-18T01:11:10.861Z,30.53
2022-08-18T01:13:39.316Z,32.23
2022-08-18T01:16:26.265Z,31.00
2022-08-18T01:19:12.173Z,30.40
2022-08-18T01:21:52.229Z,31.77
2022-08-18T01:24:46.216Z,29.97
2022-08-18T01:27:17.754Z,26.30
2022-08-18T01:29:45.941Z,29.23
2022-08-18T01:32:19.457Z,28.80
2022-08-18T01:34:48.208Z,31.23
2022-08-18T01:37:20.858Z,25.50
2022-08-18T01:41:24.295Z,31.27
2022-08-18T01:42:35.744Z,33.63
2022-08-18T01:45:04.545Z,34.67
2022-08-18T01:47:33.212Z,35.37
2022-08-18T01:50:15.745Z,35.10
2022-08-18T01:52:42.455Z,36.43
2022-08-18T01:55:09.765Z,27.43
2022-08-18T01:57:44.715Z,33.83
2022-08-18T02:00:14.402Z,34.70
2022-08-18T02:02:41.987Z,34.50
2022-08-18T02:05:18.181Z,18.70
2022-08-18T02:07:44.813Z,33.30
2022-08-18T02:10:12.615Z,23.33
2022-08-18T02:12:43.785Z,18.80
2022-08-18T02:15:12.113Z,16.57
2022-08-18T02:17:40.341Z,31.90
2022-08-18T02:20:08.568Z,33.60
2022-08-18T02:22:35.590Z,31.60
2022-08-18T02:25:02.226Z,31.90
2022-08-18T02:27:29.222Z,33.37
2022-08-18T02:29:59.519Z,34.80
2022-08-18T02:32:26.573Z,33.20
2022-08-18T02:34:56.037Z,34.13
2022-08-18T02:37:22.947Z,35.30
2022-08-18T02:39:49.963Z,20.27
2022-08-18T02:42:16.915Z,32.50
2022-08-18T02:44:43.993Z,20.30
2022-08-18T02:47:10.698Z,23.63
2022-08-18T02:49:37.302Z,25.57
2022-08-18T02:52:04.483Z,19.43
2022-08-18T02:54:31.131Z,32.90
2022-08-18T02:56:58.313Z,21.43
2022-08-18T02:59:27.487Z,22.10
2022-08-18T03:01:56.224Z,19.80
2022-08-18T03:04:29.426Z,21.67
2022-08-18T03:06:57.922Z,30.00
2022-08-18T03:09:24.567Z,22.30
2022-08-18T03:11:52.823Z,31.73
2022-08-18T03:14:19.585Z,29.10
2022-08-18T03:16:53.387Z,30.37
2022-08-18T03:19:22.437Z,31.47
2022-08-18T03:21:49.253Z,26.10
2022-08-18T03:24:22.798Z,31.67
2022-08-18T03:26:51.310Z,29.80
2022-08-18T03:29:18.140Z,21.23
2022-08-18T03:31:45.767Z,27.20
2022-08-18T03:34:12.696Z,28.10
2022-08-18T03:36:39.692Z,20.43
2022-08-18T03:39:10.180Z,23.03
2022-08-18T03:41:58.968Z,28.77
2022-08-18T03:44:27.975Z,23.10
2022-08-18T03:46:55.008Z,22.57
2022-08-18T03:49:21.715Z,16.17
2022-08-18T03:51:49.360Z,22.97
2022-08-18T03:54:18.250Z,26.70
2022-08-18T03:56:46.908Z,26.50
2022-08-18T03:59:17.905Z,28.00
2022-08-18T04:01:45.899Z,25.60
2022-08-18T04:04:15.880Z,25.43
2022-08-18T04:06:54.060Z,25.20
2022-08-18T04:09:21.941Z,23.67
2022-08-18T04:11:49.595Z,27.93
2022-08-18T04:14:19.456Z,26.70
2022-08-18T04:16:46.851Z,24.93
2022-08-18T04:19:14.168Z,17.90
2022-08-18T04:21:53.864Z,25.70
2022-08-18T04:24:20.737Z,27.87
2022-08-18T04:26:48.562Z,23.90
2022-08-18T04:29:18.334Z,29.60
2022-08-18T04:31:45.398Z,25.90
2022-08-18T04:34:12.795Z,24.13
2022-08-18T04:36:40.029Z,27.00
2022-08-18T04:39:09.134Z,27.87
2022-08-18T04:41:37.246Z,20.83
2022-08-18T04:44:07.342Z,23.47
2022-08-18T04:46:40.009Z,28.80
2022-08-18T04:49:09.094Z,28.53
2022-08-18T04:52:36.225Z,29.80
2022-08-18T04:54:24.750Z,25.67
2022-08-18T04:56:51.834Z,30.03
2022-08-18T04:59:18.920Z,29.47
2022-08-18T05:01:47.478Z,29.97
2022-08-18T05:04:16.399Z,28.30
2022-08-18T05:07:17.731Z,22.80
2022-08-18T05:09:43.161Z,28.43
2022-08-18T05:12:15.472Z,25.60
2022-08-18T05:14:46.425Z,30.90
2022-08-18T05:17:15.298Z,29.10
2022-08-18T05:19:44.353Z,26.40
2022-08-18T05:22:14.563Z,29.07
2022-08-18T05:24:42.684Z,28.87
2022-08-18T05:27:09.307Z,30.07
2022-08-18T05:29:36.721Z,23.87
2022-08-18T05:32:09.160Z,28.60
2022-08-18T05:34:35.981Z,24.37
2022-08-18T05:37:16.131Z,27.40
2022-08-18T05:39:58.415Z,28.23
2022-08-18T05:42:28.664Z,28.90
2022-08-18T05:44:56.134Z,29.70
2022-08-18T05:47:33.137Z,30.17
2022-08-18T05:50:26.091Z,29.93
2022-08-18T05:52:57.237Z,29.10
2022-08-18T05:55:52.910Z,30.00
2022-08-18T05:58:33.300Z,22.57
2022-08-18T06:01:13.620Z,25.70
2022-08-18T06:03:52.893Z,24.50
2022-08-18T06:06:25.104Z,29.33
2022-08-18T06:09:15.700Z,31.07
2022-08-18T06:11:43.250Z,28.47
2022-08-18T06:14:10.707Z,18.53
2022-08-18T06:16:47.310Z,28.60
2022-08-18T06:19:38.948Z,24.33
2022-08-18T06:22:31.273Z,23.40
2022-08-18T06:25:34.783Z,24.60
2022-08-18T06:28:14.064Z,20.93
2022-08-18T06:30:50.213Z,23.83
2022-08-18T06:33:17.222Z,30.63
2022-08-18T06:36:13.039Z,29.97
2022-08-18T06:39:04.906Z,31.30
2022-08-18T06:41:42.013Z,31.80
2022-08-18T06:44:19.297Z,25.57
2022-08-18T06:46:54.338Z,27.37
2022-08-18T06:49:46.565Z,31.30
2022-08-18T06:52:33.839Z,30.00
2022-08-18T06:55:05.429Z,21.57
2022-08-18T06:57:35.273Z,31.23
2022-08-18T07:00:18.163Z,29.10
2022-08-18T07:02:57.501Z,30.27
2022-08-18T07:05:29.302Z,30.37
2022-08-18T07:08:14.413Z,28.13
2022-08-18T07:10:46.639Z,22.60
2022-08-18T07:13:13.194Z,24.70
2022-08-18T07:15:40.712Z,29.20
2022-08-18T07:18:09.124Z,29.00
2022-08-18T07:20:43.459Z,28.97
2022-08-18T07:23:33.688Z,24.37
2022-08-18T07:26:15.783Z,29.93
2022-08-18T07:28:46.616Z,26.20
2022-08-18T07:31:24.768Z,25.93
2022-08-18T07:34:25.418Z,23.33
2022-08-18T07:37:04.285Z,29.13
2022-08-18T07:40:00.093Z,22.20
2022-08-18T07:43:01.968Z,26.20
2022-08-18T07:45:44.949Z,19.23
2022-08-18T07:48:37.612Z,18.70
2022-08-18T07:51:19.584Z,19.13
2022-08-18T07:54:45.015Z,15.80
2022-08-18T07:57:42.068Z,24.47
2022-08-18T08:00:35.134Z,26.03
2022-08-18T08:03:38.756Z,14.60
2022-08-18T08:06:28.675Z,16.03
2022-08-18T08:09:14.852Z,20.30
2022-08-18T08:11:58.450Z,15.53
2022-08-18T08:14:41.333Z,14.30
2022-08-18T08:17:24.359Z,23.07
2022-08-18T08:20:08.312Z,22.73
2022-08-18T08:22:52.700Z,19.37
2022-08-18T08:25:46.298Z,16.97
2022-08-18T08:28:44.044Z,18.00
2022-08-18T08:31:37.249Z,16.27
2022-08-18T08:34:27.438Z,16.57
2022-08-18T08:37:01.134Z,15.63
2022-08-18T08:39:45.395Z,14.40
2022-08-18T08:42:31.713Z,11.57
2022-08-18T08:45:11.328Z,14.90
2022-08-18T08:47:44.315Z,15.07
2022-08-18T08:50:17.851Z,13.07
2022-08-18T08:53:05.602Z,14.07
2022-08-18T08:55:37.112Z,13.17
2022-08-18T08:58:26.300Z,13.93
2022-08-18T09:00:53.972Z,13.33
2022-08-18T09:03:39.849Z,9.60
2022-08-18T09:06:12.649Z,11.87
2022-08-18T09:09:07.829Z,13.67
2022-08-18T09:12:07.899Z,12.80
2022-08-18T09:14:59.162Z,10.30
2022-08-18T09:17:48.377Z,10.70
2022-08-18T09:20:36.017Z,11.97
2022-08-18T09:23:17.180Z,10.90
2022-08-18T09:25:44.259Z,11.87
2022-08-18T09:28:42.076Z,11.40
2022-08-18T09:31:09.179Z,11.20
2022-08-18T09:33:40.403Z,11.87
2022-08-18T09:36:28.133Z,11.67
2022-08-18T09:39:27.257Z,9.40
2022-08-18T09:42:03.257Z,8.60
2022-08-18T09:44:48.400Z,8.40
2022-08-18T09:47:21.731Z,7.50
2022-08-18T09:50:29.846Z,8.90
2022-08-18T09:58:58.926Z,7.80
2022-08-18T10:01:36.359Z,8.67
2022-08-18T10:04:14.932Z,8.03
2022-08-18T10:09:44.943Z,5.60
2022-08-18T10:12:35.878Z,8.00
2022-08-18T10:18:28.417Z,7.43
2022-08-18T10:21:12.034Z,7.03
2022-08-18T10:24:02.797Z,7.80
2022-08-18T10:26:37.397Z,6.40
2022-08-18T10:29:12.113Z,7.17
2022-08-18T10:31:57.613Z,6.20
2022-08-18T10:34:52.902Z,8.47
2022-08-18T10:37:28.316Z,6.30
2022-08-18T10:39:59.641Z,6.77
2022-08-18T10:42:49.772Z,7.97
2022-08-18T10:45:29.988Z,7.80
2022-08-18T10:48:24.300Z,7.07
2022-08-18T10:51:11.327Z,5.83
2022-08-18T10:53:52.894Z,6.03
2022-08-18T10:56:45.470Z,6.33
2022-08-18T10:59:50.458Z,5.70
2022-08-18T11:02:24.790Z,8.70
2022-08-18T11:04:58.707Z,5.50
2022-08-18T11:07:30.853Z,6.10
2022-08-18T11:10:29.237Z,9.13
2022-08-18T11:13:10.058Z,7.63
2022-08-18T11:15:55.696Z,6.60
2022-08-18T11:18:24.112Z,6.63
2022-08-18T11:20:51.944Z,5.50
2022-08-18T11:23:18.613Z,6.87
2022-08-18T11:25:45.419Z,6.67
2022-08-18T11:28:21.312Z,5.97
2022-08-18T11:30:58.095Z,6.17
2022-08-18T11:33:25.053Z,6.17
2022-08-18T11:35:59.307Z,5.20
2022-08-18T11:38:31.517Z,4.73
2022-08-18T11:41:19.730Z,7.00
2022-08-18T11:43:48.386Z,7.33
2022-08-18T11:46:28.190Z,6.80
2022-08-18T11:49:13.897Z,5.53
2022-08-18T11:51:55.818Z,7.60
2022-08-18T11:54:33.472Z,6.70
2022-08-18T11:57:42.805Z,7.23
2022-08-18T12:00:43.092Z,7.03
2022-08-18T12:03:38.294Z,8.10
2022-08-18T12:06:26.939Z,6.77
2022-08-18T12:09:30.616Z,8.13
2022-08-18T12:12:28.127Z,8.03
2022-08-18T12:15:26.103Z,8.63
2022-08-18T12:18:03.450Z,8.40
2022-08-18T12:20:30.469Z,8.33
2022-08-18T12:22:58.180Z,7.70
2022-08-18T12:25:25.730Z,9.10
2022-08-18T12:27:54.050Z,9.83
2022-08-18T12:30:20.708Z,9.10
2022-08-18T12:32:50.587Z,8.57
2022-08-18T12:35:22.094Z,8.70
2022-08-18T12:38:13.437Z,8.67
2022-08-18T12:40:36.317Z,7.30
2022-08-18T12:43:03.595Z,6.40
2022-08-18T12:45:32.691Z,7.20
2022-08-18T12:48:04.009Z,6.87
2022-08-18T12:50:32.790Z,6.57
2022-08-18T12:53:01.843Z,6.50
2022-08-18T12:55:34.730Z,6.47
2022-08-18T12:58:01.749Z,5.20
2022-08-18T13:03:15.087Z,5.10
2022-08-18T13:05:42.724Z,6.00
2022-08-18T13:08:30.568Z,5.50
2022-08-18T13:11:14.750Z,5.93
2022-08-18T13:13:53.053Z,5.80
2022-08-18T13:16:30.589Z,5.40
2022-08-18T13:18:57.630Z,6.17
2022-08-18T13:21:24.363Z,5.67
2022-08-18T13:23:51.532Z,5.03
2022-08-18T13:26:33.556Z,5.03
2022-08-18T13:29:00.330Z,5.30
2022-08-18T13:31:27.874Z,4.30
2022-08-18T13:34:00.680Z,5.90
2022-08-18T13:36:46.240Z,5.83
2022-08-18T13:39:16.964Z,5.73
2022-08-18T13:41:45.613Z,4.77
2022-08-18T13:44:13.308Z,5.13
2022-08-18T13:46:47.192Z,4.57
2022-08-18T13:49:23.743Z,5.07
2022-08-18T13:51:59.185Z,4.20
2022-08-18T13:54:35.370Z,4.60
2022-08-18T13:57:03.277Z,4.30
2022-08-18T13:59:32.909Z,4.73
2022-08-18T14:02:01.767Z,3.97
2022-08-18T14:04:28.878Z,4.23
2022-08-18T14:06:57.212Z,4.27
2022-08-18T14:09:27.750Z,4.47
2022-08-18T14:12:15.939Z,4.53
2022-08-18T14:14:49.873Z,5.20
2022-08-18T14:17:19.806Z,4.73
2022-08-18T14:20:10.488Z,4.40
2022-08-18T14:23:00.784Z,4.60
2022-08-18T14:25:46.613Z,4.93
2022-08-18T14:28:13.617Z,5.20
2022-08-18T14:30:54.267Z,4.17
2022-08-18T14:33:29.201Z,4.33
2022-08-18T14:36:10.025Z,4.33
2022-08-18T14:38:36.993Z,3.97
2022-08-18T14:41:07.607Z,4.27
2022-08-18T14:43:51.776Z,3.93
2022-08-18T14:46:23.189Z,4.50
2022-08-18T14:48:57.227Z,4.87
2022-08-18T14:51:27.240Z,4.13
2022-08-18T14:53:55.694Z,3.90
2022-08-18T14:56:23.403Z,4.37
2022-08-18T14:58:54.994Z,4.60
2022-08-18T15:01:22.946Z,4.57
2022-08-18T15:03:49.777Z,4.10
2022-08-18T15:06:17.025Z,4.70
2022-08-18T15:08:49.446Z,4.03
2022-08-18T15:11:16.703Z,4.10
2022-08-18T15:13:45.997Z,3.93
2022-08-18T15:16:15.079Z,4.03
2022-08-18T15:18:43.603Z,4.30
2022-08-18T15:21:35.391Z,4.37
2022-08-18T15:24:25.086Z,3.83
2022-08-18T15:26:58.006Z,3.70
2022-08-18T15:29:28.058Z,3.90
2022-08-18T15:32:01.960Z,3.40
2022-08-18T15:34:46.227Z,4.17
2022-08-18T15:37:15.835Z,4.17
2022-08-18T15:39:46.307Z,4.40
2022-08-18T15:42:19.104Z,3.67
2022-08-18T15:44:47.204Z,3.90
2022-08-18T15:47:20.826Z,3.80
2022-08-18T15:49:48.033Z,4.10
2022-08-18T15:52:15.133Z,4.00
2022-08-18T15:54:44.509Z,4.10
2022-08-18T15:57:39.171Z,3.87
2022-08-18T16:00:05.053Z,3.37
2022-08-18T16:02:31.721Z,3.60
2022-08-18T16:05:10.257Z,3.80
2022-08-18T16:07:41.280Z,3.97
2022-08-18T16:10:21.937Z,3.97
2022-08-18T16:12:49.509Z,3.87
2022-08-18T16:15:21.389Z,3.47
2022-08-18T16:17:49.880Z,3.23
2022-08-18T16:20:18.642Z,3.80
2022-08-18T16:22:47.401Z,3.00
2022-08-18T16:25:16.366Z,3.93
2022-08-18T16:27:43.867Z,3.87
2022-08-18T16:30:16.452Z,3.23
2022-08-18T16:32:43.467Z,3.00
2022-08-18T16:35:11.046Z,3.60
2022-08-18T16:37:37.965Z,3.50
2022-08-18T16:40:05.401Z,3.60
2022-08-18T16:42:34.901Z,3.50
2022-08-18T16:45:03.806Z,3.60
2022-08-18T16:47:38.807Z,3.30
2022-08-18T16:50:11.614Z,3.50
2022-08-18T16:52:39.173Z,2.67
2022-08-18T16:55:09.159Z,3.40
2022-08-18T16:58:04.674Z,3.37
2022-08-18T17:00:55.118Z,2.87
2022-08-18T17:03:42.053Z,3.10
2022-08-18T17:06:12.228Z,3.43
2022-08-18T17:08:40.041Z,4.40
2022-08-18T17:11:10.468Z,3.00
2022-08-18T17:13:39.563Z,2.90
2022-08-18T17:16:08.041Z,3.73
2022-08-18T17:18:36.031Z,3.30
2022-08-18T17:21:04.535Z,3.53
2022-08-18T17:23:32.185Z,3.40
2022-08-18T17:25:59.677Z,3.87
2022-08-18T17:28:35.240Z,4.10
2022-08-18T17:31:02.136Z,3.50
2022-08-18T17:33:35.666Z,3.60
2022-08-18T17:36:08.156Z,3.63
2022-08-18T17:38:43.665Z,4.90
2022-08-18T17:41:11.900Z,3.50
2022-08-18T17:46:17.675Z,4.57
2022-08-18T17:49:12.559Z,3.90
2022-08-18T17:51:45.234Z,2.93
2022-08-18T17:54:36.333Z,3.77
2022-08-18T17:57:10.512Z,3.50
2022-08-18T18:00:11.421Z,3.77
2022-08-18T18:02:40.045Z,3.50
2022-08-18T18:05:14.205Z,3.57
2022-08-18T18:07:52.739Z,3.40
2022-08-18T18:10:27.883Z,3.53
2022-08-18T18:13:08.629Z,3.50
2022-08-18T18:15:40.828Z,3.40
2022-08-18T18:18:32.103Z,3.27
2022-08-18T18:21:06.023Z,3.13
2022-08-18T18:23:41.247Z,2.90
2022-08-18T18:26:29.337Z,3.23
2022-08-18T18:29:13.417Z,2.90
2022-08-18T18:31:44.349Z,2.90
2022-08-18T18:34:28.197Z,3.30
2022-08-18T18:36:56.035Z,2.97
2022-08-18T18:39:33.129Z,2.60
2022-08-18T18:42:19.283Z,2.90
2022-08-18T18:44:58.362Z,2.70
2022-08-18T18:48:03.562Z,3.30
2022-08-18T18:50:55.602Z,2.87
2022-08-18T18:53:51.747Z,3.10
2022-08-18T18:56:28.570Z,3.00
2022-08-18T18:59:35.722Z,3.17
2022-08-18T19:02:34.693Z,3.30
2022-08-18T19:05:26.892Z,3.10
2022-08-18T19:08:00.960Z,3.07
2022-08-18T19:10:46.071Z,3.07
2022-08-18T19:13:32.838Z,3.20
2022-08-18T19:16:45.089Z,3.00
2022-08-18T19:19:36.997Z,3.10
2022-08-18T19:22:18.882Z,2.87
2022-08-18T19:24:57.898Z,3.53
2022-08-18T19:27:30.884Z,2.93
2022-08-18T19:30:04.014Z,2.80
2022-08-18T19:32:36.881Z,2.67
2022-08-18T19:35:11.916Z,3.07
2022-08-18T19:38:22.540Z,3.10
2022-08-18T19:41:07.938Z,3.10
2022-08-18T19:43:56.451Z,2.90
2022-08-18T19:46:39.463Z,3.43
2022-08-18T19:49:16.505Z,2.50
2022-08-18T19:51:44.523Z,2.67
2022-08-18T19:54:41.760Z,3.47
2022-08-18T19:57:53.865Z,3.53
2022-08-18T20:00:51.161Z,3.70
2022-08-18T20:03:29.729Z,3.60
2022-08-18T20:06:33.947Z,3.07
2022-08-18T20:09:26.187Z,3.30
2022-08-18T20:12:08.476Z,3.00
2022-08-18T20:14:39.247Z,3.00
2022-08-18T20:17:16.759Z,3.13
2022-08-18T20:19:57.294Z,3.10
2022-08-18T20:22:24.574Z,2.83
2022-08-18T20:25:08.199Z,3.47
2022-08-18T20:27:43.055Z,3.10
2022-08-18T20:30:53.364Z,3.37
2022-08-18T20:33:30.733Z,3.63
2022-08-18T20:36:16.181Z,3.30
2022-08-18T20:38:49.117Z,2.80
2022-08-18T20:41:41.979Z,3.30
2022-08-18T20:44:29.066Z,3.47
2022-08-18T20:47:31.348Z,3.00
2022-08-18T20:50:19.739Z,3.40
2022-08-18T20:53:08.698Z,3.53
2022-08-18T20:55:36.146Z,4.23
2022-08-18T20:58:20.451Z,4.10
2022-08-18T21:00:56.800Z,4.07
2022-08-18T21:03:35.604Z,3.93
2022-08-18T21:06:02.794Z,4.13
2022-08-18T21:08:31.670Z,4.33
2022-08-18T21:11:02.420Z,4.40
2022-08-18T21:13:41.231Z,4.10
2022-08-18T21:16:38.635Z,3.57
2022-08-18T21:19:13.605Z,4.20
2022-08-18T21:21:45.609Z,3.90
2022-08-18T21:24:33.792Z,4.50
2022-08-18T21:27:26.127Z,3.90
2022-08-18T21:30:19.651Z,4.50
2022-08-18T21:32:47.994Z,4.50
2022-08-18T21:35:31.600Z,4.23
2022-08-18T21:38:12.650Z,4.40
2022-08-18T21:40:48.559Z,3.60
2022-08-18T21:43:40.173Z,3.90
2022-08-18T21:46:08.895Z,4.30
2022-08-18T21:48:49.175Z,4.03
2022-08-18T21:51:25.079Z,4.23
2022-08-18T21:53:53.494Z,4.67
2022-08-18T21:56:29.216Z,4.23
2022-08-18T21:59:14.387Z,4.67
2022-08-18T22:01:50.356Z,4.97
2022-08-18T22:04:45.074Z,4.53
2022-08-18T22:07:34.168Z,4.30
2022-08-18T22:10:37.048Z,5.10
2022-08-18T22:13:22.469Z,5.67
2022-08-18T22:15:50.429Z,6.20
2022-08-18T22:18:17.742Z,4.90
2022-08-18T22:20:44.270Z,4.83
2022-08-18T22:23:32.281Z,4.90
2022-08-18T22:26:27.210Z,5.27
2022-08-18T22:29:20.909Z,5.20
2022-08-18T22:31:50.113Z,5.27
2022-08-18T22:34:27.825Z,4.60
2022-08-18T22:37:13.269Z,5.30
2022-08-18T22:39:55.631Z,5.00
2022-08-18T22:42:29.261Z,5.57
2022-08-18T22:45:00.124Z,4.70
2022-08-18T22:47:29.491Z,4.77
2022-08-18T22:49:56.466Z,4.30
2022-08-18T22:52:36.978Z,4.90
2022-08-18T22:55:08.171Z,4.83
2022-08-18T22:57:37.421Z,5.20
2022-08-18T23:00:08.706Z,5.00
2022-08-18T23:02:37.073Z,5.80
2022-08-18T23:05:05.142Z,5.13
2022-08-18T23:07:32.436Z,4.80
2022-08-18T23:09:59.288Z,5.03
2022-08-18T23:12:26.377Z,4.70
2022-08-18T23:14:53.408Z,4.77
2022-08-18T23:17:21.399Z,5.03
2022-08-18T23:19:48.472Z,5.33
2022-08-18T23:22:19.255Z,5.20
2022-08-18T23:24:45.859Z,5.30
2022-08-18T23:27:12.441Z,5.47
2022-08-18T23:29:41.090Z,4.93
2022-08-18T23:32:07.742Z,5.43
2022-08-18T23:34:35.569Z,5.23
2022-08-18T23:37:03.384Z,4.60
2022-08-18T23:39:33.076Z,4.80
2022-08-18T23:42:00.758Z,4.40
2022-08-18T23:44:28.168Z,4.80
2022-08-18T23:46:59.783Z,5.20
2022-08-18T23:49:28.467Z,4.77
2022-08-18T23:51:58.008Z,4.80
2022-08-18T23:54:29.061Z,4.30
2022-08-18T23:56:56.172Z,4.53
2022-08-18T23:59:24.095Z,5.43
